createdAt,value
2023-05-24T00:04:25.933Z,9.25
2023-05-24T00:09:20.338Z,8.73
2023-05-24T00:14:14.320Z,8.20
2023-05-24T00:19:07.511Z,7.75
2023-05-24T00:24:01.972Z,9.25
2023-05-24T00:28:56.054Z,7.97
2023-05-24T00:33:50.261Z,8.20
2023-05-24T00:38:45.204Z,7.85
2023-05-24T00:43:38.157Z,8.70
2023-05-24T00:48:32.167Z,7.72
2023-05-24T00:53:24.749Z,7.93
2023-05-24T00:58:18.075Z,8.65
2023-05-24T01:03:11.560Z,8.88
2023-05-24T01:08:30.332Z,9.63
2023-05-24T01:13:32.179Z,9.57
2023-05-24T01:18:26.612Z,10.00
2023-05-24T01:23:27.225Z,10.73
2023-05-24T01:28:20.770Z,10.98
2023-05-24T01:33:13.737Z,11.13
2023-05-24T01:38:13.239Z,11.43
2023-05-24T01:43:32.026Z,11.93
2023-05-24T01:48:52.265Z,12.65
2023-05-24T01:53:48.417Z,11.88
2023-05-24T01:58:43.183Z,12.10
2023-05-24T02:03:38.451Z,11.02
2023-05-24T02:08:32.849Z,10.82
2023-05-24T02:13:26.082Z,10.63
2023-05-24T02:18:20.029Z,11.98
2023-05-24T02:23:13.542Z,13.20
2023-05-24T02:28:06.954Z,12.82
2023-05-24T02:33:01.533Z,12.32
2023-05-24T02:37:54.324Z,12.20
2023-05-24T02:42:48.297Z,11.55
2023-05-24T02:47:42.353Z,10.70
2023-05-24T02:52:35.388Z,10.57
2023-05-24T02:57:29.221Z,9.82
2023-05-24T03:02:22.976Z,9.15
2023-05-24T03:07:16.389Z,9.10
2023-05-24T03:12:10.450Z,8.90
2023-05-24T03:17:04.716Z,8.60
2023-05-24T03:22:00.711Z,8.15
2023-05-24T03:26:54.239Z,8.68
2023-05-24T03:31:47.213Z,7.70
2023-05-24T03:36:40.916Z,8.25
2023-05-24T03:41:35.652Z,10.02
2023-05-24T03:46:29.427Z,9.93
2023-05-24T03:51:24.985Z,10.23
2023-05-24T03:56:18.579Z,9.02
2023-05-24T04:01:21.933Z,9.20
2023-05-24T04:06:29.625Z,7.95
2023-05-24T04:11:25.557Z,8.68
2023-05-24T04:16:18.501Z,7.63
2023-05-24T04:21:12.074Z,7.65
2023-05-24T04:26:06.535Z,8.05
2023-05-24T04:30:59.475Z,7.78
2023-05-24T04:35:53.861Z,8.00
2023-05-24T04:40:47.876Z,7.50
2023-05-24T04:45:42.464Z,8.23
2023-05-24T04:50:38.218Z,8.05
2023-05-24T04:55:30.933Z,8.48
2023-05-24T05:00:24.184Z,8.70
2023-05-24T05:05:18.690Z,8.60
2023-05-24T05:10:13.202Z,7.50
2023-05-24T05:15:07.375Z,8.45
2023-05-24T05:20:01.194Z,7.90
2023-05-24T05:24:54.800Z,8.50
2023-05-24T05:29:48.640Z,8.45
2023-05-24T05:34:41.904Z,8.00
2023-05-24T05:39:35.409Z,8.20
2023-05-24T05:44:28.666Z,9.15
2023-05-24T05:49:22.772Z,7.68
2023-05-24T05:54:18.854Z,8.15
2023-05-24T05:59:18.920Z,7.43
2023-05-24T06:04:12.199Z,7.80
2023-05-24T06:09:06.512Z,8.20
2023-05-24T06:14:00.201Z,7.68
2023-05-24T06:19:05.298Z,8.05
2023-05-24T06:24:00.548Z,7.68
2023-05-24T06:28:54.458Z,8.32
2023-05-24T06:34:02.646Z,9.73
2023-05-24T06:38:57.860Z,13.10
2023-05-24T06:43:51.566Z,11.43
2023-05-24T06:48:45.370Z,10.07
2023-05-24T06:53:39.368Z,11.98
2023-05-24T06:58:33.216Z,11.65
2023-05-24T07:03:27.218Z,11.73
2023-05-24T07:08:21.459Z,10.23
2023-05-24T07:13:14.736Z,10.85
2023-05-24T07:18:08.076Z,12.75
2023-05-24T07:23:02.811Z,9.63
2023-05-24T07:27:56.543Z,9.40
2023-05-24T07:32:50.422Z,9.98
2023-05-24T07:37:43.750Z,9.68
2023-05-24T07:42:37.760Z,7.30
2023-05-24T07:47:30.911Z,7.78
2023-05-24T07:52:24.989Z,8.68
2023-05-24T07:57:18.675Z,7.65
2023-05-24T08:02:14.356Z,9.55
2023-05-24T08:07:11.603Z,8.60
2023-05-24T08:12:08.353Z,9.43
2023-05-24T08:17:01.553Z,9.70
2023-05-24T08:22:05.352Z,8.73
2023-05-24T08:26:58.322Z,8.75
2023-05-24T08:31:52.437Z,8.48
2023-05-24T08:36:46.586Z,9.70
2023-05-24T08:41:40.557Z,9.27
2023-05-24T08:46:55.264Z,8.95
2023-05-24T08:51:48.632Z,9.18
2023-05-24T08:56:43.058Z,9.50
2023-05-24T09:01:38.444Z,10.00
2023-05-24T09:06:31.759Z,9.65
2023-05-24T09:11:26.163Z,9.90
2023-05-24T09:16:18.746Z,9.15
2023-05-24T09:21:12.790Z,8.55
2023-05-24T09:26:10.211Z,8.25
2023-05-24T09:31:07.495Z,8.73
2023-05-24T09:36:03.597Z,7.45
2023-05-24T09:41:07.679Z,7.25
2023-05-24T09:46:04.527Z,8.60
2023-05-24T09:51:06.788Z,7.72
2023-05-24T09:56:02.498Z,6.22
2023-05-24T10:01:08.738Z,6.00
2023-05-24T10:06:03.651Z,5.90
2023-05-24T10:10:58.244Z,5.80
2023-05-24T10:15:51.879Z,6.20
2023-05-24T10:20:45.885Z,5.93
2023-05-24T10:25:42.450Z,6.50
2023-05-24T10:31:01.992Z,6.38
2023-05-24T10:35:55.615Z,4.90
2023-05-24T10:40:49.843Z,4.95
2023-05-24T10:45:44.543Z,5.68
2023-05-24T10:50:37.543Z,5.75
2023-05-24T10:55:30.589Z,4.97
2023-05-24T11:05:47.289Z,4.45
2023-05-24T11:10:44.501Z,4.88
2023-05-24T11:15:37.875Z,4.78
2023-05-24T11:20:31.714Z,4.57
2023-05-24T11:25:24.657Z,4.93
2023-05-24T11:30:19.138Z,5.43
2023-05-24T11:35:12.914Z,5.50
2023-05-24T11:40:11.882Z,4.53
2023-05-24T11:45:07.430Z,5.13
2023-05-24T11:50:00.331Z,4.82
2023-05-24T11:54:55.818Z,4.77
2023-05-24T11:59:49.824Z,5.53
2023-05-24T12:04:43.570Z,5.72
2023-05-24T12:09:35.958Z,5.25
2023-05-24T12:14:33.692Z,6.43
2023-05-24T12:19:33.641Z,6.22
2023-05-24T12:24:27.840Z,6.15
2023-05-24T12:29:21.343Z,6.80
2023-05-24T12:34:19.681Z,6.50
2023-05-24T12:39:34.861Z,5.70
2023-05-24T12:44:38.926Z,6.05
2023-05-24T12:49:32.644Z,6.43
2023-05-24T12:54:28.199Z,5.95
2023-05-24T13:04:14.749Z,6.60
2023-05-24T13:09:08.813Z,3.35
2023-05-24T13:14:04.948Z,2.17
2023-05-24T13:18:58.633Z,2.80
2023-05-24T13:23:52.556Z,2.17
2023-05-24T13:29:11.791Z,3.00
2023-05-24T13:34:00.685Z,7.45
2023-05-24T13:39:12.797Z,8.23
2023-05-24T13:44:08.705Z,8.60
2023-05-24T13:49:02.710Z,4.95
2023-05-24T13:53:57.119Z,4.82
2023-05-24T13:58:50.252Z,4.78
2023-05-24T14:03:44.108Z,7.22
2023-05-24T14:08:37.724Z,7.53
2023-05-24T14:14:32.928Z,7.05
2023-05-24T14:18:50.477Z,6.35
2023-05-24T14:23:45.077Z,6.43
2023-05-24T14:28:38.537Z,5.57
2023-05-24T14:33:31.311Z,5.05
2023-05-24T14:38:25.038Z,7.15
2023-05-24T14:43:18.979Z,5.50
2023-05-24T14:48:13.757Z,4.93
2023-05-24T14:53:26.799Z,4.93
2023-05-24T14:58:21.007Z,6.25
2023-05-24T15:03:15.728Z,5.10
2023-05-24T15:08:11.728Z,5.35
2023-05-24T15:13:06.583Z,7.32
2023-05-24T15:18:03.397Z,9.75
2023-05-24T15:22:56.305Z,9.63
2023-05-24T15:27:48.879Z,11.32
2023-05-24T15:32:42.496Z,8.50
2023-05-24T15:37:35.948Z,11.48
2023-05-24T15:42:29.190Z,11.10
2023-05-24T15:47:22.796Z,13.63
2023-05-24T15:52:16.012Z,14.07
2023-05-24T15:57:09.216Z,8.55
2023-05-24T16:02:02.935Z,9.57
2023-05-24T16:06:56.069Z,7.93
2023-05-24T16:11:49.500Z,8.15
2023-05-24T16:16:43.638Z,7.13
2023-05-24T16:21:36.450Z,8.20
2023-05-24T16:26:31.281Z,8.30
2023-05-24T16:31:24.677Z,8.27
2023-05-24T16:36:17.523Z,9.32
2023-05-24T16:41:11.574Z,9.70
2023-05-24T16:46:06.604Z,10.98
2023-05-24T16:51:00.416Z,9.90
2023-05-24T16:55:55.364Z,10.55
2023-05-24T17:00:48.639Z,10.60
2023-05-24T17:05:42.557Z,11.82
2023-05-24T17:10:37.031Z,10.98
2023-05-24T17:15:29.862Z,11.20
2023-05-24T17:20:23.802Z,11.20
2023-05-24T17:25:17.236Z,9.50
2023-05-24T17:30:10.628Z,10.45
2023-05-24T17:35:04.223Z,10.05
2023-05-24T17:39:58.347Z,12.65
2023-05-24T17:44:52.678Z,12.27
2023-05-24T17:49:46.197Z,11.73
2023-05-24T17:54:38.631Z,12.43
2023-05-24T17:59:34.675Z,11.27
2023-05-24T18:04:28.224Z,11.82
2023-05-24T18:09:22.323Z,13.82
2023-05-24T18:14:15.373Z,11.05
2023-05-24T18:19:09.564Z,10.65
2023-05-24T18:24:03.220Z,11.85
2023-05-24T18:28:55.948Z,13.75
2023-05-24T18:33:49.313Z,12.85
2023-05-24T18:38:43.208Z,11.70
2023-05-24T18:43:37.057Z,11.25
2023-05-24T18:48:31.358Z,12.18
2023-05-24T18:53:24.768Z,12.75
2023-05-24T18:58:18.360Z,11.35
2023-05-24T19:03:12.500Z,13.23
2023-05-24T19:08:05.509Z,13.05
2023-05-24T19:12:59.487Z,13.55
2023-05-24T19:17:54.101Z,12.73
2023-05-24T19:22:48.161Z,12.05
2023-05-24T19:27:54.833Z,13.77
2023-05-24T19:32:53.585Z,13.05
2023-05-24T19:37:46.547Z,13.38
2023-05-24T19:42:39.703Z,13.60
2023-05-24T19:47:33.844Z,14.77
2023-05-24T19:52:27.396Z,12.65
2023-05-24T19:57:21.968Z,13.18
2023-05-24T20:02:16.131Z,13.75
2023-05-24T20:07:10.788Z,14.65
2023-05-24T20:12:05.425Z,14.93
2023-05-24T20:16:59.751Z,14.85
2023-05-24T20:21:53.196Z,15.20
2023-05-24T20:26:46.828Z,14.50
2023-05-24T20:31:40.083Z,14.95
2023-05-24T20:36:37.759Z,15.43
2023-05-24T20:41:31.384Z,13.98
2023-05-24T20:46:25.406Z,14.27
2023-05-24T20:51:20.093Z,13.98
2023-05-24T20:56:13.480Z,14.50
2023-05-24T21:01:08.761Z,14.52
2023-05-24T21:06:02.836Z,15.25
2023-05-24T21:10:57.770Z,14.85
2023-05-24T21:15:51.359Z,12.80
2023-05-24T21:20:45.541Z,13.10
2023-05-24T21:25:39.025Z,13.68
2023-05-24T21:30:31.320Z,12.60
2023-05-24T21:35:25.250Z,13.45
2023-05-24T21:40:18.898Z,13.48
2023-05-24T21:45:13.000Z,13.20
2023-05-24T21:50:10.402Z,12.82
2023-05-24T21:55:03.134Z,13.52
2023-05-24T21:59:56.222Z,13.30
2023-05-24T22:04:50.080Z,14.25
2023-05-24T22:09:45.087Z,13.63
2023-05-24T22:14:38.983Z,13.32
2023-05-24T22:19:39.658Z,14.52
2023-05-24T22:24:34.902Z,14.05
2023-05-24T22:29:28.463Z,14.50
2023-05-24T22:34:47.949Z,13.68
2023-05-24T22:39:41.635Z,14.88
2023-05-24T22:44:35.154Z,13.65
2023-05-24T22:49:30.059Z,13.95
2023-05-24T22:54:23.218Z,14.63
2023-05-24T22:59:16.855Z,14.52
2023-05-24T23:04:21.078Z,15.27
2023-05-24T23:09:15.468Z,15.70
2023-05-24T23:14:09.299Z,14.50
2023-05-24T23:19:05.770Z,14.48
2023-05-24T23:23:59.801Z,13.65
2023-05-24T23:28:53.569Z,14.90
2023-05-24T23:33:47.244Z,13.75
2023-05-24T23:38:41.297Z,15.07
2023-05-24T23:43:34.368Z,14.77
2023-05-24T23:48:27.060Z,14.60
2023-05-24T23:53:20.484Z,13.73
2023-05-24T23:58:13.230Z,13.70
